createdAt,value
2017-07-04T00:01:07.185Z,99.90
2017-07-04T00:03:34.735Z,99.90
2017-07-04T00:06:02.286Z,99.90
2017-07-04T00:08:29.808Z,99.90
2017-07-04T00:10:57.335Z,99.90
2017-07-04T00:13:24.982Z,99.90
2017-07-04T00:15:52.528Z,99.90
2017-07-04T00:18:20.095Z,99.90
2017-07-04T00:20:47.652Z,99.90
2017-07-04T00:23:15.169Z,99.90
2017-07-04T00:25:43.467Z,99.90
2017-07-04T00:28:11.010Z,99.90
2017-07-04T00:30:39.329Z,99.90
2017-07-04T00:33:06.902Z,99.90
2017-07-04T00:35:34.544Z,99.90
2017-07-04T00:38:02.120Z,99.90
2017-07-04T00:40:29.649Z,99.90
2017-07-04T00:42:57.205Z,99.90
2017-07-04T00:45:24.741Z,99.90
2017-07-04T00:47:53.037Z,99.90
2017-07-04T00:50:20.576Z,99.90
2017-07-04T00:52:48.864Z,99.90
2017-07-04T00:55:17.177Z,99.90
2017-07-04T00:57:44.717Z,99.90
2017-07-04T01:00:12.236Z,99.90
2017-07-04T01:02:39.756Z,99.90
2017-07-04T01:05:07.291Z,99.90
2017-07-04T01:07:34.870Z,99.90
2017-07-04T01:10:02.394Z,99.90
2017-07-04T01:12:30.704Z,99.90
2017-07-04T01:14:58.267Z,99.90
2017-07-04T01:17:25.799Z,99.90
2017-07-04T01:19:53.918Z,99.90
2017-07-04T01:22:21.449Z,99.90
2017-07-04T01:24:48.974Z,99.90
2017-07-04T01:27:17.291Z,99.90
2017-07-04T01:29:45.098Z,99.90
2017-07-04T01:32:12.740Z,99.90
2017-07-04T01:34:40.280Z,99.90
2017-07-04T01:37:07.850Z,99.90
2017-07-04T01:39:35.377Z,99.90
2017-07-04T01:42:03.001Z,99.90
2017-07-04T01:44:30.537Z,99.90
2017-07-04T01:46:58.061Z,99.90
2017-07-04T01:49:25.610Z,99.90
2017-07-04T01:51:53.134Z,99.90
2017-07-04T01:54:20.757Z,99.90
2017-07-04T01:56:48.325Z,99.90
2017-07-04T01:59:15.848Z,99.90
2017-07-04T02:01:43.442Z,99.90
2017-07-04T02:04:10.999Z,99.90
2017-07-04T02:06:38.523Z,99.90
2017-07-04T02:09:06.055Z,99.90
2017-07-04T02:11:33.602Z,99.90
2017-07-04T02:14:01.130Z,99.90
2017-07-04T02:16:28.661Z,99.90
2017-07-04T02:18:56.198Z,99.90
2017-07-04T02:21:23.809Z,99.90
2017-07-04T02:23:51.334Z,99.90
2017-07-04T02:26:18.879Z,99.90
2017-07-04T02:28:47.179Z,99.90
2017-07-04T02:31:14.718Z,99.90
2017-07-04T02:33:43.033Z,99.90
2017-07-04T02:36:10.557Z,99.90
2017-07-04T02:38:38.853Z,99.90
2017-07-04T02:41:06.405Z,99.90
2017-07-04T02:43:33.925Z,99.90
2017-07-04T02:46:01.453Z,99.90
2017-07-04T02:48:28.993Z,99.90
2017-07-04T02:50:56.522Z,99.90
2017-07-04T02:53:24.052Z,99.90
2017-07-04T02:55:51.694Z,99.90
2017-07-04T02:58:19.208Z,99.90
2017-07-04T03:00:47.512Z,99.90
2017-07-04T03:03:15.061Z,99.90
2017-07-04T03:05:42.591Z,99.90
2017-07-04T03:08:10.211Z,99.90
2017-07-04T03:10:37.799Z,99.90
2017-07-04T03:13:05.328Z,99.90
2017-07-04T03:15:32.865Z,99.90
2017-07-04T03:18:00.410Z,99.90
2017-07-04T03:20:28.707Z,99.90
2017-07-04T03:22:56.238Z,99.90
2017-07-04T03:25:23.789Z,99.90
2017-07-04T03:27:51.431Z,99.90
2017-07-04T03:30:18.958Z,99.90
2017-07-04T03:32:46.494Z,99.90
2017-07-04T03:35:14.801Z,99.90
2017-07-04T03:37:42.330Z,99.90
2017-07-04T03:40:10.640Z,99.90
2017-07-04T03:42:38.170Z,99.90
2017-07-04T03:45:06.273Z,99.90
2017-07-04T03:47:34.082Z,99.90
2017-07-04T03:50:01.618Z,99.90
2017-07-04T03:52:29.257Z,99.90
2017-07-04T03:54:56.807Z,99.90
2017-07-04T03:57:24.321Z,99.90
2017-07-04T03:59:51.853Z,99.90
2017-07-04T04:02:19.384Z,99.90
2017-07-04T04:04:46.904Z,99.90
2017-07-04T04:07:14.420Z,99.90
2017-07-04T04:09:41.963Z,99.90
2017-07-04T04:12:09.486Z,99.90
2017-07-04T04:14:37.010Z,99.90
2017-07-04T04:17:04.577Z,99.90
2017-07-04T04:19:32.102Z,99.90
2017-07-04T04:21:59.630Z,99.90
2017-07-04T04:24:27.943Z,99.90
2017-07-04T04:26:55.471Z,99.90
2017-07-04T04:29:23.813Z,99.90
2017-07-04T04:31:51.349Z,99.90
2017-07-04T04:34:18.876Z,99.90
2017-07-04T04:36:46.405Z,99.90
2017-07-04T04:39:13.944Z,99.90
2017-07-04T04:41:42.225Z,99.90
2017-07-04T04:44:09.855Z,99.90
2017-07-04T04:46:37.397Z,99.90
2017-07-04T04:49:04.921Z,99.90
2017-07-04T04:51:32.451Z,99.90
2017-07-04T04:54:00.010Z,99.90
2017-07-04T04:56:27.673Z,99.90
2017-07-04T04:58:55.257Z,99.90
2017-07-04T05:01:22.801Z,99.90
2017-07-04T05:03:50.351Z,99.90
2017-07-04T05:06:17.917Z,99.90
2017-07-04T05:08:46.261Z,99.60
2017-07-04T05:11:13.786Z,99.50
2017-07-04T05:13:42.214Z,99.70
2017-07-04T05:16:09.759Z,99.70
2017-07-04T05:18:37.287Z,99.00
2017-07-04T05:21:05.587Z,97.60
2017-07-04T05:23:33.127Z,97.60
2017-07-04T05:26:01.426Z,97.80
2017-07-04T05:28:28.990Z,97.70
2017-07-04T05:30:56.566Z,97.70
2017-07-04T05:33:24.093Z,97.80
2017-07-04T05:35:51.618Z,97.30
2017-07-04T05:38:19.166Z,97.10
2017-07-04T05:40:46.689Z,95.90
2017-07-04T05:43:14.210Z,95.50
2017-07-04T05:45:42.534Z,94.40
2017-07-04T05:48:10.066Z,94.40
2017-07-04T05:50:37.593Z,94.00
2017-07-04T05:53:05.146Z,93.20
2017-07-04T05:55:32.675Z,92.60
2017-07-04T05:58:00.235Z,92.50
2017-07-04T06:00:27.802Z,91.60
2017-07-04T06:02:55.332Z,91.20
2017-07-04T06:05:22.866Z,91.00
2017-07-04T06:07:51.291Z,91.60
2017-07-04T06:10:18.811Z,91.60
2017-07-04T06:12:47.096Z,91.30
2017-07-04T06:15:14.640Z,91.30
2017-07-04T06:17:42.927Z,92.80
2017-07-04T06:20:11.236Z,93.00
2017-07-04T06:22:38.774Z,92.90
2017-07-04T06:25:06.333Z,93.30
2017-07-04T06:27:33.860Z,93.70
2017-07-04T06:30:01.402Z,94.40
2017-07-04T06:32:28.934Z,94.80
2017-07-04T06:34:56.455Z,95.10
2017-07-04T06:37:24.790Z,95.70
2017-07-04T06:39:52.691Z,95.70
2017-07-04T06:42:21.031Z,95.50
2017-07-04T06:44:48.575Z,95.60
2017-07-04T06:47:16.101Z,95.20
2017-07-04T06:49:44.394Z,95.10
2017-07-04T06:52:12.017Z,95.10
2017-07-04T06:54:39.537Z,95.00
2017-07-04T06:57:07.078Z,94.70
2017-07-04T06:59:34.618Z,95.00
2017-07-04T07:02:02.906Z,94.50
2017-07-04T07:04:30.428Z,94.50
2017-07-04T07:06:58.060Z,93.70
2017-07-04T07:09:25.588Z,92.20
2017-07-04T07:11:53.117Z,91.70
2017-07-04T07:14:21.443Z,90.60
2017-07-04T07:16:48.967Z,90.80
2017-07-04T07:19:17.253Z,91.50
2017-07-04T07:21:44.806Z,91.50
2017-07-04T07:24:13.167Z,90.90
2017-07-04T07:26:40.706Z,90.90
2017-07-04T07:29:08.444Z,90.70
2017-07-04T07:31:35.974Z,91.20
2017-07-04T07:34:03.504Z,91.20
2017-07-04T07:36:31.042Z,91.20
2017-07-04T07:38:58.574Z,91.50
2017-07-04T07:41:26.142Z,91.90
2017-07-04T07:43:53.701Z,92.20
2017-07-04T07:46:21.237Z,91.90
2017-07-04T07:48:48.766Z,92.30
2017-07-04T07:51:16.315Z,91.80
2017-07-04T07:53:43.838Z,91.70
2017-07-04T07:56:11.408Z,90.90
2017-07-04T07:58:39.088Z,90.00
2017-07-04T08:01:06.625Z,89.70
2017-07-04T08:03:34.153Z,89.30
2017-07-04T08:06:01.765Z,88.10
2017-07-04T08:08:29.397Z,87.90
2017-07-04T08:10:56.924Z,86.50
2017-07-04T08:13:25.344Z,83.00
2017-07-04T08:15:52.896Z,82.80
2017-07-04T08:18:20.418Z,79.20
2017-07-04T08:20:48.731Z,80.80
2017-07-04T08:23:16.248Z,80.70
2017-07-04T08:25:44.539Z,82.00
2017-07-04T08:28:12.965Z,79.50
2017-07-04T08:30:40.495Z,79.30
2017-07-04T08:33:08.075Z,76.60
2017-07-04T08:35:35.630Z,76.60
2017-07-04T08:38:03.188Z,76.60
2017-07-04T08:40:30.756Z,76.00
2017-07-04T08:42:58.302Z,75.30
2017-07-04T08:45:25.836Z,75.30
2017-07-04T08:47:53.434Z,73.40
2017-07-04T08:50:20.978Z,73.00
2017-07-04T08:52:48.505Z,72.50
2017-07-04T08:55:16.793Z,70.80
2017-07-04T08:57:45.208Z,71.90
2017-07-04T09:00:12.731Z,71.80
2017-07-04T09:02:40.337Z,69.70
2017-07-04T09:05:07.883Z,68.30
2017-07-04T09:07:35.402Z,69.50
2017-07-04T09:10:03.697Z,70.70
2017-07-04T09:12:31.236Z,70.70
2017-07-04T09:14:59.567Z,73.60
2017-07-04T09:17:27.122Z,72.90
2017-07-04T09:19:55.265Z,74.20
2017-07-04T09:22:22.794Z,70.50
2017-07-04T09:24:51.106Z,67.60
2017-07-04T09:27:18.654Z,67.50
2017-07-04T09:29:46.190Z,70.80
2017-07-04T09:32:14.525Z,71.90
2017-07-04T09:34:42.070Z,71.50
2017-07-04T09:37:09.742Z,72.00
2017-07-04T09:39:37.266Z,67.60
2017-07-04T09:42:05.578Z,66.40
2017-07-04T09:44:33.154Z,66.30
2017-07-04T09:47:00.697Z,66.30
2017-07-04T09:49:28.242Z,62.00
2017-07-04T09:51:55.772Z,66.10
2017-07-04T09:54:24.193Z,65.80
2017-07-04T09:56:51.733Z,65.60
2017-07-04T09:59:19.257Z,61.50
2017-07-04T10:01:46.887Z,58.80
2017-07-04T10:04:14.445Z,58.50
2017-07-04T10:06:41.997Z,57.60
2017-07-04T10:09:09.560Z,60.00
2017-07-04T10:11:37.131Z,59.40
2017-07-04T10:14:04.663Z,60.10
2017-07-04T10:16:32.251Z,58.40
2017-07-04T10:18:59.999Z,61.20
2017-07-04T10:21:27.570Z,58.00
2017-07-04T10:23:55.118Z,55.60
2017-07-04T10:26:22.687Z,54.70
2017-07-04T10:28:50.213Z,56.30
2017-07-04T10:31:17.805Z,53.90
2017-07-04T10:33:45.346Z,55.20
2017-07-04T10:36:12.895Z,52.10
2017-07-04T10:38:40.484Z,52.50
2017-07-04T10:41:08.023Z,52.50
2017-07-04T10:43:35.697Z,52.20
2017-07-04T10:46:03.222Z,49.40
2017-07-04T10:48:30.935Z,49.80
2017-07-04T10:50:58.453Z,48.30
2017-07-04T10:53:25.977Z,48.80
2017-07-04T10:55:53.523Z,50.10
2017-07-04T10:58:21.047Z,48.40
2017-07-04T11:00:48.578Z,47.20
2017-07-04T11:03:16.134Z,47.90
2017-07-04T11:05:43.664Z,50.90
2017-07-04T11:08:11.194Z,46.60
2017-07-04T11:10:38.737Z,48.20
2017-07-04T11:13:06.262Z,47.00
2017-07-04T11:15:33.782Z,46.00
2017-07-04T11:18:01.334Z,44.40
2017-07-04T11:20:28.857Z,42.70
2017-07-04T11:22:57.169Z,42.80
2017-07-04T11:25:24.724Z,42.70
2017-07-04T11:27:52.254Z,42.10
2017-07-04T11:30:20.552Z,40.50
2017-07-04T11:32:48.123Z,40.40
2017-07-04T11:35:15.647Z,39.90
2017-07-04T11:37:43.954Z,40.20
2017-07-04T11:40:11.518Z,40.10
2017-07-04T11:42:39.090Z,38.00
2017-07-04T11:45:06.613Z,35.60
2017-07-04T11:47:34.165Z,34.30
2017-07-04T11:50:02.484Z,33.20
2017-07-04T11:52:30.013Z,33.10
2017-07-04T11:54:57.566Z,31.50
2017-07-04T11:57:25.100Z,31.50
2017-07-04T11:59:52.725Z,30.00
2017-07-04T12:02:20.273Z,29.50
2017-07-04T12:04:47.801Z,30.10
2017-07-04T12:07:16.111Z,30.20
2017-07-04T12:09:43.669Z,30.20
2017-07-04T12:12:11.201Z,29.30
2017-07-04T12:14:38.738Z,30.00
2017-07-04T12:17:06.276Z,29.90
2017-07-04T12:19:33.809Z,28.60
2017-07-04T12:22:01.343Z,28.50
2017-07-04T12:24:28.902Z,28.30
2017-07-04T12:26:56.427Z,28.90
2017-07-04T12:29:23.954Z,29.30
2017-07-04T12:31:51.490Z,29.50
2017-07-04T12:34:19.246Z,31.20
2017-07-04T12:36:46.838Z,32.90
2017-07-04T12:39:14.403Z,32.80
2017-07-04T12:41:41.991Z,31.50
2017-07-04T12:44:09.514Z,30.00
2017-07-04T12:46:37.882Z,29.20
2017-07-04T12:49:05.403Z,29.80
2017-07-04T12:51:33.723Z,28.40
2017-07-04T12:54:01.385Z,28.30
2017-07-04T12:56:28.927Z,27.90
2017-07-04T12:58:56.456Z,28.40
2017-07-04T13:01:24.779Z,26.90
2017-07-04T13:03:52.310Z,26.90
2017-07-04T13:06:19.908Z,27.60
2017-07-04T13:08:47.465Z,26.40
2017-07-04T13:11:14.981Z,26.80
2017-07-04T13:13:43.265Z,30.70
2017-07-04T13:16:11.571Z,31.80
2017-07-04T13:18:39.099Z,31.70
2017-07-04T13:21:07.383Z,35.10
2017-07-04T13:23:34.927Z,35.10
2017-07-04T13:26:03.244Z,38.20
2017-07-04T13:28:30.763Z,38.10
2017-07-04T13:30:58.320Z,38.00
2017-07-04T13:33:26.618Z,32.90
2017-07-04T13:35:54.150Z,32.80
2017-07-04T13:38:21.696Z,31.30
2017-07-04T13:40:49.215Z,29.00
2017-07-04T13:43:16.739Z,28.10
2017-07-04T13:45:45.049Z,26.50
2017-07-04T13:48:12.580Z,26.40
2017-07-04T13:50:40.277Z,26.20
2017-07-04T13:53:07.818Z,25.20
2017-07-04T13:55:35.342Z,25.80
2017-07-04T13:58:02.870Z,25.50
2017-07-04T14:00:30.406Z,25.40
2017-07-04T14:02:57.942Z,25.60
2017-07-04T14:05:25.480Z,25.00
2017-07-04T14:07:53.021Z,26.20
2017-07-04T14:10:20.545Z,27.30
2017-07-04T14:12:48.077Z,27.50
2017-07-04T14:15:16.407Z,27.20
2017-07-04T14:17:43.935Z,27.20
2017-07-04T14:20:11.463Z,28.00
2017-07-04T14:22:39.769Z,28.90
2017-07-04T14:25:07.294Z,28.80
2017-07-04T14:27:35.581Z,31.70
2017-07-04T14:30:03.116Z,31.60
2017-07-04T14:32:30.637Z,30.00
2017-07-04T14:34:58.159Z,30.70
2017-07-04T14:37:26.469Z,35.20
2017-07-04T14:39:54.813Z,35.10
2017-07-04T14:42:23.111Z,32.60
2017-07-04T14:44:50.658Z,32.60
2017-07-04T14:47:18.206Z,32.10
2017-07-04T14:49:46.494Z,34.20
2017-07-04T14:52:14.039Z,33.90
2017-07-04T14:54:42.331Z,34.70
2017-07-04T14:57:09.942Z,34.70
2017-07-04T14:59:37.587Z,33.10
2017-07-04T15:02:05.118Z,32.40
2017-07-04T15:04:32.654Z,29.60
2017-07-04T15:07:00.978Z,29.20
2017-07-04T15:09:28.541Z,29.20
2017-07-04T15:11:56.096Z,29.60
2017-07-04T15:14:23.642Z,30.50
2017-07-04T15:16:51.186Z,32.30
2017-07-04T15:19:18.714Z,33.60
2017-07-04T15:21:46.300Z,35.30
2017-07-04T15:24:13.832Z,35.90
2017-07-04T15:26:41.557Z,36.50
2017-07-04T15:29:09.121Z,38.70
2017-07-04T15:31:36.682Z,38.50
2017-07-04T15:34:04.208Z,39.20
2017-07-04T15:36:31.819Z,38.90
2017-07-04T15:38:59.361Z,39.80
2017-07-04T15:41:26.886Z,40.30
2017-07-04T15:43:54.495Z,40.70
2017-07-04T15:46:22.039Z,40.20
2017-07-04T15:48:49.607Z,40.30
2017-07-04T15:51:17.259Z,39.90
2017-07-04T15:53:44.815Z,37.30
2017-07-04T15:56:12.578Z,34.00
2017-07-04T15:58:40.142Z,32.80
2017-07-04T16:01:07.674Z,31.40
2017-07-04T16:03:35.205Z,31.90
2017-07-04T16:06:03.636Z,30.10
2017-07-04T16:08:31.203Z,29.60
2017-07-04T16:10:58.758Z,29.70
2017-07-04T16:13:26.311Z,29.80
2017-07-04T16:15:53.842Z,30.00
2017-07-04T16:18:21.382Z,31.90
2017-07-04T16:20:49.701Z,33.50
2017-07-04T16:23:17.279Z,33.40
2017-07-04T16:25:44.838Z,32.40
2017-07-04T16:28:12.488Z,32.30
2017-07-04T16:30:40.060Z,33.00
2017-07-04T16:33:07.608Z,33.00
2017-07-04T16:35:35.160Z,32.90
2017-07-04T16:38:02.690Z,35.20
2017-07-04T16:40:30.999Z,38.90
2017-07-04T16:42:58.563Z,38.80
2017-07-04T16:45:26.091Z,39.40
2017-07-04T16:47:53.657Z,39.90
2017-07-04T16:50:21.197Z,40.50
2017-07-04T16:52:49.521Z,41.50
2017-07-04T16:55:17.042Z,41.40
2017-07-04T16:57:44.608Z,41.50
2017-07-04T17:00:12.140Z,42.40
2017-07-04T17:02:39.675Z,42.50
2017-07-04T17:05:07.214Z,43.20
2017-07-04T17:07:34.730Z,44.40
2017-07-04T17:10:02.266Z,43.60
2017-07-04T17:12:29.815Z,43.30
2017-07-04T17:14:57.345Z,43.60
2017-07-04T17:17:24.877Z,44.00
2017-07-04T17:19:52.446Z,44.90
2017-07-04T17:22:19.986Z,45.40
2017-07-04T17:24:47.509Z,46.00
2017-07-04T17:27:15.059Z,46.60
2017-07-04T17:29:42.582Z,46.10
2017-07-04T17:32:10.108Z,45.70
2017-07-04T17:34:37.659Z,45.80
2017-07-04T17:37:05.185Z,46.90
2017-07-04T17:39:32.705Z,46.70
2017-07-04T17:42:00.253Z,46.50
2017-07-04T17:44:27.779Z,46.70
2017-07-04T17:46:55.311Z,48.10
2017-07-04T17:49:22.862Z,48.80
2017-07-04T17:51:50.393Z,49.60
2017-07-04T17:54:18.693Z,50.10
2017-07-04T17:56:46.232Z,50.00
2017-07-04T17:59:14.523Z,50.60
2017-07-04T18:01:42.057Z,50.60
2017-07-04T18:04:09.601Z,50.90
2017-07-04T18:06:37.142Z,51.10
2017-07-04T18:09:04.703Z,50.80
2017-07-04T18:11:32.280Z,50.90
2017-07-04T18:13:59.811Z,51.10
2017-07-04T18:16:27.346Z,51.10
2017-07-04T18:18:54.895Z,51.70
2017-07-04T18:21:22.425Z,51.80
2017-07-04T18:23:49.951Z,51.90
2017-07-04T18:26:17.513Z,52.30
2017-07-04T18:28:45.043Z,52.20
2017-07-04T18:31:12.570Z,52.30
2017-07-04T18:33:40.155Z,52.50
2017-07-04T18:36:07.694Z,53.40
2017-07-04T18:38:35.986Z,53.90
2017-07-04T18:41:03.538Z,53.40
2017-07-04T18:43:31.830Z,53.10
2017-07-04T18:45:59.354Z,53.10
2017-07-04T18:48:26.895Z,53.80
2017-07-04T18:50:54.422Z,54.50
2017-07-04T18:53:21.950Z,55.10
2017-07-04T18:55:50.369Z,56.50
2017-07-04T18:58:17.922Z,56.50
2017-07-04T19:00:45.490Z,57.00
2017-07-04T19:03:13.057Z,57.40
2017-07-04T19:05:40.594Z,58.10
2017-07-04T19:08:08.127Z,59.30
2017-07-04T19:10:36.455Z,61.10
2017-07-04T19:13:03.987Z,61.10
2017-07-04T19:15:31.519Z,61.70
2017-07-04T19:17:59.843Z,63.40
2017-07-04T19:20:27.818Z,63.40
2017-07-04T19:22:55.390Z,64.40
2017-07-04T19:25:22.937Z,65.50
2017-07-04T19:27:50.467Z,66.30
2017-07-04T19:30:18.953Z,67.40
2017-07-04T19:32:46.531Z,67.80
2017-07-04T19:35:14.106Z,68.50
2017-07-04T19:37:41.631Z,68.90
2017-07-04T19:40:09.178Z,70.00
2017-07-04T19:42:37.498Z,71.50
2017-07-04T19:45:05.032Z,71.40
2017-07-04T19:47:32.605Z,72.20
2017-07-04T19:50:00.133Z,72.80
2017-07-04T19:52:28.426Z,75.90
2017-07-04T19:54:55.978Z,75.90
2017-07-04T19:57:23.513Z,76.40
2017-07-04T19:59:51.941Z,78.20
2017-07-04T20:02:19.483Z,77.70
2017-07-04T20:04:47.013Z,78.70
2017-07-04T20:07:14.687Z,79.40
2017-07-04T20:09:42.371Z,80.00
2017-07-04T20:12:09.896Z,80.60
2017-07-04T20:14:38.191Z,81.20
2017-07-04T20:17:05.754Z,81.00
2017-07-04T20:19:33.362Z,81.30
2017-07-04T20:22:01.000Z,81.10
2017-07-04T20:24:28.559Z,81.50
2017-07-04T20:26:56.096Z,81.90
2017-07-04T20:29:23.735Z,82.40
2017-07-04T20:31:51.443Z,83.00
2017-07-04T20:34:19.007Z,83.40
2017-07-04T20:36:46.577Z,83.80
2017-07-04T20:39:14.232Z,83.90
2017-07-04T20:41:41.773Z,84.40
2017-07-04T20:44:09.310Z,84.80
2017-07-04T20:46:36.870Z,85.70
2017-07-04T20:49:05.169Z,88.30
2017-07-04T20:51:32.754Z,88.20
2017-07-04T20:54:00.299Z,89.20
2017-07-04T20:56:27.821Z,90.40
2017-07-04T20:58:56.153Z,91.60
2017-07-04T21:01:23.694Z,91.60
2017-07-04T21:03:51.218Z,92.00
2017-07-04T21:06:19.538Z,92.70
2017-07-04T21:08:47.087Z,92.60
2017-07-04T21:11:14.609Z,93.00
2017-07-04T21:13:42.934Z,93.50
2017-07-04T21:16:10.490Z,93.40
2017-07-04T21:18:38.021Z,94.10
2017-07-04T21:21:05.646Z,94.50
2017-07-04T21:23:33.182Z,95.10
2017-07-04T21:26:00.709Z,95.50
2017-07-04T21:28:28.243Z,96.10
2017-07-04T21:30:56.551Z,97.30
2017-07-04T21:33:24.078Z,97.30
2017-07-04T21:35:52.370Z,97.90
2017-07-04T21:38:19.920Z,97.90
2017-07-04T21:40:48.206Z,98.90
2017-07-04T21:43:15.730Z,98.90
2017-07-04T21:45:43.290Z,99.60
2017-07-04T21:48:10.832Z,99.90
2017-07-04T21:50:38.413Z,99.90
2017-07-04T21:53:06.762Z,99.90
2017-07-04T21:55:34.370Z,99.90
2017-07-04T21:58:01.985Z,99.90
2017-07-04T22:00:29.562Z,99.90
2017-07-04T22:02:57.095Z,99.90
2017-07-04T22:05:24.615Z,99.90
2017-07-04T22:07:52.177Z,99.90
2017-07-04T22:10:19.717Z,99.90
2017-07-04T22:12:48.019Z,99.90
2017-07-04T22:15:15.568Z,99.90
2017-07-04T22:17:43.095Z,99.90
2017-07-04T22:20:10.628Z,99.90
2017-07-04T22:22:38.177Z,99.90
2017-07-04T22:25:05.763Z,99.90
2017-07-04T22:27:33.438Z,99.90
2017-07-04T22:30:00.971Z,99.90
2017-07-04T22:32:28.495Z,99.90
2017-07-04T22:34:56.019Z,99.90
2017-07-04T22:37:23.574Z,99.90
2017-07-04T22:39:51.110Z,99.90
2017-07-04T22:42:18.634Z,99.90
2017-07-04T22:44:46.178Z,99.90
2017-07-04T22:47:14.502Z,99.90
2017-07-04T22:49:42.050Z,99.90
2017-07-04T22:52:09.589Z,99.90
2017-07-04T22:54:37.120Z,99.90
2017-07-04T22:57:05.424Z,99.90
2017-07-04T22:59:32.971Z,99.90
2017-07-04T23:02:01.257Z,99.90
2017-07-04T23:04:28.790Z,99.90
2017-07-04T23:06:56.329Z,99.90
2017-07-04T23:09:23.959Z,99.90
2017-07-04T23:11:51.486Z,99.90
2017-07-04T23:14:19.794Z,99.90
2017-07-04T23:16:47.317Z,99.90
2017-07-04T23:19:15.608Z,99.90
2017-07-04T23:21:43.183Z,99.90
2017-07-04T23:24:10.704Z,99.90
2017-07-04T23:26:39.029Z,99.90
2017-07-04T23:29:06.589Z,99.90
2017-07-04T23:31:34.111Z,99.90
2017-07-04T23:34:01.635Z,99.90
2017-07-04T23:36:29.178Z,99.90
2017-07-04T23:38:56.706Z,99.90
2017-07-04T23:41:24.238Z,99.90
2017-07-04T23:43:51.804Z,99.90
2017-07-04T23:46:20.098Z,99.90
2017-07-04T23:48:47.621Z,99.90
2017-07-04T23:51:15.158Z,99.90
2017-07-04T23:53:42.708Z,99.90
2017-07-04T23:56:10.235Z,99.90
2017-07-04T23:58:37.782Z,99.90
